sensor_id;sensor_type;location;lat;lon;timestamp;noise_LAeq;noise_LA_min;noise_LA_max;noise_LA01;noise_LA95
65079;Laerm;52655;52.218;5.964;2022-08-19T00:01:09;32.8;28.6;47.4;;
65079;Laerm;52655;52.218;5.964;2022-08-19T00:03:09;31.0;28.6;43.5;;
65079;Laerm;52655;52.218;5.964;2022-08-19T00:05:11;35.2;28.8;49.8;;
65079;Laerm;52655;52.218;5.964;2022-08-19T00:07:09;31.0;29.4;36.4;;
65079;Laerm;52655;52.218;5.964;2022-08-19T00:09:10;35.1;29.0;44.3;;
65079;Laerm;52655;52.218;5.964;2022-08-19T00:11:10;30.9;29.0;39.0;;
65079;Laerm;52655;52.218;5.964;2022-08-19T00:15:12;30.4;28.4;38.5;;
65079;Laerm;52655;52.218;5.964;2022-08-19T00:17:10;34.5;28.8;50.4;;
65079;Laerm;52655;52.218;5.964;2022-08-19T00:19:10;32.2;28.6;42.2;;
65079;Laerm;52655;52.218;5.964;2022-08-19T00:21:10;32.3;28.6;45.7;;
65079;Laerm;52655;52.218;5.964;2022-08-19T00:23:10;31.3;28.4;44.7;;
65079;Laerm;52655;52.218;5.964;2022-08-19T00:25:10;30.4;29.0;33.4;;
65079;Laerm;52655;52.218;5.964;2022-08-19T00:27:10;29.7;28.6;31.1;;
65079;Laerm;52655;52.218;5.964;2022-08-19T00:29:11;29.5;28.4;34.1;;
65079;Laerm;52655;52.218;5.964;2022-08-19T00:31:10;31.5;28.4;47.8;;
65079;Laerm;52655;52.218;5.964;2022-08-19T00:33:10;29.4;28.3;35.5;;
65079;Laerm;52655;52.218;5.964;2022-08-19T00:35:10;29.9;28.8;31.7;;
65079;Laerm;52655;52.218;5.964;2022-08-19T00:37:10;29.6;28.5;31.4;;
65079;Laerm;52655;52.218;5.964;2022-08-19T00:39:11;36.0;28.9;50.5;;
65079;Laerm;52655;52.218;5.964;2022-08-19T00:41:14;30.3;28.8;33.5;;
65079;Laerm;52655;52.218;5.964;2022-08-19T00:43:10;30.5;29.2;34.4;;
65079;Laerm;52655;52.218;5.964;2022-08-19T00:45:13;30.3;29.0;36.5;;
65079;Laerm;52655;52.218;5.964;2022-08-19T00:47:10;30.4;28.6;36.7;;
65079;Laerm;52655;52.218;5.964;2022-08-19T00:49:14;33.1;28.8;46.1;;
65079;Laerm;52655;52.218;5.964;2022-08-19T00:51:10;33.4;29.0;49.0;;
65079;Laerm;52655;52.218;5.964;2022-08-19T00:53:11;42.8;29.1;65.3;;
65079;Laerm;52655;52.218;5.964;2022-08-19T00:55:12;33.2;28.7;47.9;;
65079;Laerm;52655;52.218;5.964;2022-08-19T00:57:12;30.5;29.0;33.3;;
65079;Laerm;52655;52.218;5.964;2022-08-19T00:59:11;33.1;29.2;45.1;;
65079;Laerm;52655;52.218;5.964;2022-08-19T01:03:12;30.9;28.8;34.6;;
65079;Laerm;52655;52.218;5.964;2022-08-19T01:05:15;31.4;29.0;39.6;;
65079;Laerm;52655;52.218;5.964;2022-08-19T01:07:11;29.8;28.4;32.1;;
65079;Laerm;52655;52.218;5.964;2022-08-19T01:09:11;30.0;28.6;34.1;;
65079;Laerm;52655;52.218;5.964;2022-08-19T01:11:11;30.1;28.8;35.8;;
65079;Laerm;52655;52.218;5.964;2022-08-19T01:13:12;29.5;28.4;31.3;;
65079;Laerm;52655;52.218;5.964;2022-08-19T01:15:12;31.1;28.8;40.0;;
65079;Laerm;52655;52.218;5.964;2022-08-19T01:17:11;41.9;29.0;59.3;;
65079;Laerm;52655;52.218;5.964;2022-08-19T01:19:13;29.9;28.8;31.3;;
65079;Laerm;52655;52.218;5.964;2022-08-19T01:21:20;31.1;28.6;43.6;;
65079;Laerm;52655;52.218;5.964;2022-08-19T01:23:12;29.7;28.4;31.3;;
65079;Laerm;52655;52.218;5.964;2022-08-19T01:25:12;33.5;29.1;43.2;;
65079;Laerm;52655;52.218;5.964;2022-08-19T01:27:12;29.7;28.6;33.3;;
65079;Laerm;52655;52.218;5.964;2022-08-19T01:29:12;30.0;28.8;36.3;;
65079;Laerm;52655;52.218;5.964;2022-08-19T01:33:12;33.1;28.8;48.2;;
65079;Laerm;52655;52.218;5.964;2022-08-19T01:37:12;31.1;28.6;43.6;;
65079;Laerm;52655;52.218;5.964;2022-08-19T01:39:22;30.6;29.0;36.7;;
65079;Laerm;52655;52.218;5.964;2022-08-19T01:41:12;30.2;28.8;38.3;;
65079;Laerm;52655;52.218;5.964;2022-08-19T01:43:12;32.6;28.8;47.0;;
65079;Laerm;52655;52.218;5.964;2022-08-19T01:45:12;30.4;28.8;35.6;;
65079;Laerm;52655;52.218;5.964;2022-08-19T01:47:19;30.1;28.6;34.8;;
65079;Laerm;52655;52.218;5.964;2022-08-19T01:49:12;35.1;29.0;50.3;;
65079;Laerm;52655;52.218;5.964;2022-08-19T01:51:12;30.3;28.6;40.5;;
65079;Laerm;52655;52.218;5.964;2022-08-19T01:53:12;31.0;28.8;40.6;;
65079;Laerm;52655;52.218;5.964;2022-08-19T01:55:13;33.8;29.0;50.0;;
65079;Laerm;52655;52.218;5.964;2022-08-19T01:57:14;29.9;28.8;32.0;;
65079;Laerm;52655;52.218;5.964;2022-08-19T01:59:17;30.6;28.8;40.2;;
65079;Laerm;52655;52.218;5.964;2022-08-19T02:01:12;34.2;28.8;47.4;;
65079;Laerm;52655;52.218;5.964;2022-08-19T02:03:13;30.2;28.6;35.9;;
65079;Laerm;52655;52.218;5.964;2022-08-19T02:05:13;30.8;28.8;40.8;;
65079;Laerm;52655;52.218;5.964;2022-08-19T02:07:13;37.1;29.3;50.0;;
65079;Laerm;52655;52.218;5.964;2022-08-19T02:09:13;32.6;28.8;46.1;;
65079;Laerm;52655;52.218;5.964;2022-08-19T02:11:18;32.8;28.4;46.8;;
65079;Laerm;52655;52.218;5.964;2022-08-19T02:13:13;30.2;28.9;34.3;;
65079;Laerm;52655;52.218;5.964;2022-08-19T02:15:13;32.2;28.6;46.3;;
65079;Laerm;52655;52.218;5.964;2022-08-19T02:17:13;33.7;28.5;47.4;;
65079;Laerm;52655;52.218;5.964;2022-08-19T02:19:13;30.0;28.8;34.8;;
65079;Laerm;52655;52.218;5.964;2022-08-19T02:21:13;30.3;29.0;34.3;;
65079;Laerm;52655;52.218;5.964;2022-08-19T02:23:14;32.2;28.6;46.9;;
65079;Laerm;52655;52.218;5.964;2022-08-19T02:25:13;29.9;28.6;34.8;;
65079;Laerm;52655;52.218;5.964;2022-08-19T02:27:13;30.1;28.4;44.6;;
65079;Laerm;52655;52.218;5.964;2022-08-19T02:29:13;34.5;28.8;49.4;;
65079;Laerm;52655;52.218;5.964;2022-08-19T02:33:13;33.2;28.6;50.2;;
65079;Laerm;52655;52.218;5.964;2022-08-19T02:35:14;29.6;28.5;31.4;;
65079;Laerm;52655;52.218;5.964;2022-08-19T02:37:13;30.8;28.6;35.9;;
65079;Laerm;52655;52.218;5.964;2022-08-19T02:39:13;30.2;28.4;34.8;;
65079;Laerm;52655;52.218;5.964;2022-08-19T02:41:15;30.5;28.6;36.0;;
65079;Laerm;52655;52.218;5.964;2022-08-19T02:45:14;30.2;28.8;35.5;;
65079;Laerm;52655;52.218;5.964;2022-08-19T02:49:14;38.6;28.5;55.5;;
65079;Laerm;52655;52.218;5.964;2022-08-19T02:51:16;30.8;28.8;40.0;;
65079;Laerm;52655;52.218;5.964;2022-08-19T02:55:14;30.0;28.9;35.6;;
65079;Laerm;52655;52.218;5.964;2022-08-19T02:59:14;32.2;28.8;45.6;;
65079;Laerm;52655;52.218;5.964;2022-08-19T03:01:19;33.3;28.6;45.4;;
65079;Laerm;52655;52.218;5.964;2022-08-19T03:03:14;31.3;28.6;44.2;;
65079;Laerm;52655;52.218;5.964;2022-08-19T03:05:14;30.0;28.8;35.0;;
65079;Laerm;52655;52.218;5.964;2022-08-19T03:07:15;33.5;29.0;47.8;;
65079;Laerm;52655;52.218;5.964;2022-08-19T03:09:15;29.9;28.6;33.3;;
65079;Laerm;52655;52.218;5.964;2022-08-19T03:11:15;32.7;29.0;48.2;;
65079;Laerm;52655;52.218;5.964;2022-08-19T03:13:16;33.2;29.1;48.3;;
65079;Laerm;52655;52.218;5.964;2022-08-19T03:15:15;30.5;29.2;34.1;;
65079;Laerm;52655;52.218;5.964;2022-08-19T03:17:15;30.0;28.8;33.0;;
65079;Laerm;52655;52.218;5.964;2022-08-19T03:19:16;33.1;29.2;46.3;;
65079;Laerm;52655;52.218;5.964;2022-08-19T03:21:15;30.5;28.8;38.4;;
65079;Laerm;52655;52.218;5.964;2022-08-19T03:23:15;31.4;29.2;42.8;;
65079;Laerm;52655;52.218;5.964;2022-08-19T03:25:15;31.2;29.0;51.8;;
65079;Laerm;52655;52.218;5.964;2022-08-19T03:27:15;30.6;29.1;35.2;;
65079;Laerm;52655;52.218;5.964;2022-08-19T03:29:15;35.4;29.6;49.8;;
65079;Laerm;52655;52.218;5.964;2022-08-19T03:31:18;32.8;29.4;48.0;;
65079;Laerm;52655;52.218;5.964;2022-08-19T03:33:15;31.8;29.4;38.8;;
65079;Laerm;52655;52.218;5.964;2022-08-19T03:35:15;31.1;29.2;35.6;;
65079;Laerm;52655;52.218;5.964;2022-08-19T03:37:15;31.0;29.6;34.3;;
65079;Laerm;52655;52.218;5.964;2022-08-19T03:41:22;36.9;29.6;50.6;;
65079;Laerm;52655;52.218;5.964;2022-08-19T03:43:15;33.0;29.3;53.7;;
65079;Laerm;52655;52.218;5.964;2022-08-19T03:47:15;35.9;29.9;49.2;;
65079;Laerm;52655;52.218;5.964;2022-08-19T03:49:16;34.5;29.4;47.0;;
65079;Laerm;52655;52.218;5.964;2022-08-19T03:51:21;31.3;29.4;38.6;;
65079;Laerm;52655;52.218;5.964;2022-08-19T03:53:16;35.8;29.4;52.5;;
65079;Laerm;52655;52.218;5.964;2022-08-19T03:55:16;31.5;29.6;40.7;;
65079;Laerm;52655;52.218;5.964;2022-08-19T03:57:16;35.6;29.4;52.5;;
65079;Laerm;52655;52.218;5.964;2022-08-19T03:59:20;33.1;29.8;45.5;;
65079;Laerm;52655;52.218;5.964;2022-08-19T04:01:17;33.5;29.6;46.1;;
65079;Laerm;52655;52.218;5.964;2022-08-19T04:03:16;34.1;29.5;45.3;;
65079;Laerm;52655;52.218;5.964;2022-08-19T04:05:16;31.9;29.4;43.2;;
65079;Laerm;52655;52.218;5.964;2022-08-19T04:07:16;37.2;29.6;48.2;;
65079;Laerm;52655;52.218;5.964;2022-08-19T04:09:16;35.5;29.6;47.8;;
65079;Laerm;52655;52.218;5.964;2022-08-19T04:11:18;36.8;29.8;50.2;;
65079;Laerm;52655;52.218;5.964;2022-08-19T04:13:17;34.7;30.0;47.5;;
65079;Laerm;52655;52.218;5.964;2022-08-19T04:15:23;35.8;30.3;50.5;;
65079;Laerm;52655;52.218;5.964;2022-08-19T04:17:16;34.7;29.7;49.5;;
65079;Laerm;52655;52.218;5.964;2022-08-19T04:19:17;31.0;29.3;35.9;;
65079;Laerm;52655;52.218;5.964;2022-08-19T04:21:18;34.3;29.8;50.8;;
65079;Laerm;52655;52.218;5.964;2022-08-19T04:23:16;33.1;29.8;45.5;;
65079;Laerm;52655;52.218;5.964;2022-08-19T04:25:24;38.1;30.3;48.9;;
65079;Laerm;52655;52.218;5.964;2022-08-19T04:27:16;36.6;30.4;48.8;;
65079;Laerm;52655;52.218;5.964;2022-08-19T04:29:20;34.7;30.1;48.3;;
65079;Laerm;52655;52.218;5.964;2022-08-19T04:31:18;38.0;30.2;50.3;;
65079;Laerm;52655;52.218;5.964;2022-08-19T04:33:18;35.9;30.0;47.9;;
65079;Laerm;52655;52.218;5.964;2022-08-19T04:35:17;35.7;29.6;50.6;;
65079;Laerm;52655;52.218;5.964;2022-08-19T04:37:17;39.3;29.8;59.0;;
65079;Laerm;52655;52.218;5.964;2022-08-19T04:39:18;38.9;29.7;57.0;;
65079;Laerm;52655;52.218;5.964;2022-08-19T04:41:17;36.8;30.0;50.4;;
65079;Laerm;52655;52.218;5.964;2022-08-19T04:43:17;39.8;31.2;54.8;;
65079;Laerm;52655;52.218;5.964;2022-08-19T04:45:17;38.0;30.7;52.5;;
65079;Laerm;52655;52.218;5.964;2022-08-19T04:47:17;40.3;30.6;53.6;;
65079;Laerm;52655;52.218;5.964;2022-08-19T04:49:18;38.2;31.0;49.1;;
65079;Laerm;52655;52.218;5.964;2022-08-19T04:51:17;37.5;30.6;50.5;;
65079;Laerm;52655;52.218;5.964;2022-08-19T04:53:17;37.5;30.0;51.5;;
65079;Laerm;52655;52.218;5.964;2022-08-19T04:55:17;38.6;31.3;52.8;;
65079;Laerm;52655;52.218;5.964;2022-08-19T04:57:17;39.3;30.9;51.2;;
65079;Laerm;52655;52.218;5.964;2022-08-19T04:59:18;38.2;30.8;49.8;;
65079;Laerm;52655;52.218;5.964;2022-08-19T05:01:18;38.2;30.6;49.6;;
65079;Laerm;52655;52.218;5.964;2022-08-19T05:03:18;36.5;31.0;50.2;;
65079;Laerm;52655;52.218;5.964;2022-08-19T05:05:18;33.4;30.8;37.4;;
65079;Laerm;52655;52.218;5.964;2022-08-19T05:07:18;37.8;30.6;50.7;;
65079;Laerm;52655;52.218;5.964;2022-08-19T05:09:18;37.9;30.6;48.2;;
65079;Laerm;52655;52.218;5.964;2022-08-19T05:11:20;38.2;31.0;50.9;;
65079;Laerm;52655;52.218;5.964;2022-08-19T05:13:18;37.6;31.0;49.1;;
65079;Laerm;52655;52.218;5.964;2022-08-19T05:15:18;40.7;30.8;57.8;;
65079;Laerm;52655;52.218;5.964;2022-08-19T05:17:18;41.4;31.4;54.6;;
65079;Laerm;52655;52.218;5.964;2022-08-19T05:19:18;38.6;31.1;53.7;;
65079;Laerm;52655;52.218;5.964;2022-08-19T05:21:18;35.7;31.6;47.8;;
65079;Laerm;52655;52.218;5.964;2022-08-19T05:23:18;37.8;32.0;48.4;;
65079;Laerm;52655;52.218;5.964;2022-08-19T05:25:19;38.4;31.4;48.0;;
65079;Laerm;52655;52.218;5.964;2022-08-19T05:27:18;40.8;32.5;49.9;;
65079;Laerm;52655;52.218;5.964;2022-08-19T05:31:19;38.7;31.7;54.1;;
65079;Laerm;52655;52.218;5.964;2022-08-19T05:33:18;38.2;32.2;48.6;;
65079;Laerm;52655;52.218;5.964;2022-08-19T05:35:18;38.9;31.6;54.4;;
65079;Laerm;52655;52.218;5.964;2022-08-19T05:37:19;39.8;31.4;56.4;;
65079;Laerm;52655;52.218;5.964;2022-08-19T05:39:21;38.6;31.5;49.4;;
65079;Laerm;52655;52.218;5.964;2022-08-19T05:43:19;40.7;32.2;59.8;;
65079;Laerm;52655;52.218;5.964;2022-08-19T05:45:19;41.9;32.5;53.4;;
65079;Laerm;52655;52.218;5.964;2022-08-19T05:47:19;38.6;33.6;53.2;;
65079;Laerm;52655;52.218;5.964;2022-08-19T05:49:20;40.4;33.6;52.5;;
65079;Laerm;52655;52.218;5.964;2022-08-19T05:51:19;43.2;34.4;53.8;;
65079;Laerm;52655;52.218;5.964;2022-08-19T05:53:19;43.3;32.3;54.8;;
65079;Laerm;52655;52.218;5.964;2022-08-19T05:55:19;41.2;33.2;57.3;;
65079;Laerm;52655;52.218;5.964;2022-08-19T05:57:19;42.1;32.8;62.0;;
65079;Laerm;52655;52.218;5.964;2022-08-19T05:59:20;40.5;32.8;52.5;;
65079;Laerm;52655;52.218;5.964;2022-08-19T06:01:19;42.6;33.2;54.1;;
65079;Laerm;52655;52.218;5.964;2022-08-19T06:03:19;40.5;32.8;50.3;;
65079;Laerm;52655;52.218;5.964;2022-08-19T06:05:19;39.5;32.0;51.8;;
65079;Laerm;52655;52.218;5.964;2022-08-19T06:07:19;40.7;32.4;49.2;;
65079;Laerm;52655;52.218;5.964;2022-08-19T06:11:36;46.7;31.9;57.5;;
65079;Laerm;52655;52.218;5.964;2022-08-19T06:13:20;46.2;33.3;55.7;;
65079;Laerm;52655;52.218;5.964;2022-08-19T06:15:19;37.9;32.2;52.3;;
65079;Laerm;52655;52.218;5.964;2022-08-19T06:17:20;40.3;33.0;49.8;;
65079;Laerm;52655;52.218;5.964;2022-08-19T06:19:22;39.7;34.1;48.5;;
65079;Laerm;52655;52.218;5.964;2022-08-19T06:21:20;39.1;31.5;50.8;;
65079;Laerm;52655;52.218;5.964;2022-08-19T06:23:20;40.0;32.2;54.8;;
65079;Laerm;52655;52.218;5.964;2022-08-19T06:25:20;41.4;34.0;58.5;;
65079;Laerm;52655;52.218;5.964;2022-08-19T06:27:20;40.6;32.7;52.9;;
65079;Laerm;52655;52.218;5.964;2022-08-19T06:29:21;42.6;31.9;58.1;;
65079;Laerm;52655;52.218;5.964;2022-08-19T06:31:21;42.1;32.6;54.2;;
65079;Laerm;52655;52.218;5.964;2022-08-19T06:33:20;41.6;33.1;57.8;;
65079;Laerm;52655;52.218;5.964;2022-08-19T06:35:20;39.3;31.6;58.5;;
65079;Laerm;52655;52.218;5.964;2022-08-19T06:39:21;47.1;31.4;59.2;;
65079;Laerm;52655;52.218;5.964;2022-08-19T06:41:20;46.1;31.7;60.5;;
65079;Laerm;52655;52.218;5.964;2022-08-19T06:43:20;39.6;31.2;51.1;;
65079;Laerm;52655;52.218;5.964;2022-08-19T06:45:20;41.8;34.2;52.8;;
65079;Laerm;52655;52.218;5.964;2022-08-19T06:47:21;40.5;31.7;50.4;;
65079;Laerm;52655;52.218;5.964;2022-08-19T06:49:21;39.6;32.6;49.1;;
65079;Laerm;52655;52.218;5.964;2022-08-19T06:51:21;40.6;33.1;48.4;;
65079;Laerm;52655;52.218;5.964;2022-08-19T06:53:21;40.0;31.9;53.5;;
65079;Laerm;52655;52.218;5.964;2022-08-19T06:57:21;45.7;34.7;56.2;;
65079;Laerm;52655;52.218;5.964;2022-08-19T06:59:22;39.5;32.9;49.4;;
65079;Laerm;52655;52.218;5.964;2022-08-19T07:01:21;39.3;32.1;53.0;;
65079;Laerm;52655;52.218;5.964;2022-08-19T07:03:21;41.1;32.9;52.5;;
65079;Laerm;52655;52.218;5.964;2022-08-19T07:05:21;40.7;33.1;56.2;;
65079;Laerm;52655;52.218;5.964;2022-08-19T07:07:21;40.5;33.4;56.1;;
65079;Laerm;52655;52.218;5.964;2022-08-19T07:09:21;42.0;35.2;55.2;;
65079;Laerm;52655;52.218;5.964;2022-08-19T07:11:21;40.6;33.2;48.1;;
65079;Laerm;52655;52.218;5.964;2022-08-19T07:13:21;39.8;33.4;57.3;;
65079;Laerm;52655;52.218;5.964;2022-08-19T07:15:21;38.2;33.2;48.5;;
65079;Laerm;52655;52.218;5.964;2022-08-19T07:17:21;40.2;33.0;49.8;;
65079;Laerm;52655;52.218;5.964;2022-08-19T07:19:24;38.6;34.2;47.2;;
65079;Laerm;52655;52.218;5.964;2022-08-19T07:21:22;40.9;35.4;47.4;;
65079;Laerm;52655;52.218;5.964;2022-08-19T07:23:21;39.1;34.1;49.4;;
65079;Laerm;52655;52.218;5.964;2022-08-19T07:25:21;41.1;33.7;48.6;;
65079;Laerm;52655;52.218;5.964;2022-08-19T07:27:22;41.9;32.9;55.1;;
65079;Laerm;52655;52.218;5.964;2022-08-19T07:29:22;46.5;35.2;56.8;;
65079;Laerm;52655;52.218;5.964;2022-08-19T07:33:22;42.7;34.1;57.8;;
65079;Laerm;52655;52.218;5.964;2022-08-19T07:35:22;40.8;32.1;50.7;;
65079;Laerm;52655;52.218;5.964;2022-08-19T07:37:23;39.6;32.0;49.2;;
65079;Laerm;52655;52.218;5.964;2022-08-19T07:39:24;40.8;31.1;52.3;;
65079;Laerm;52655;52.218;5.964;2022-08-19T07:41:25;42.1;34.2;60.8;;
65079;Laerm;52655;52.218;5.964;2022-08-19T07:43:22;39.2;33.7;49.8;;
65079;Laerm;52655;52.218;5.964;2022-08-19T07:45:22;41.2;33.9;55.3;;
65079;Laerm;52655;52.218;5.964;2022-08-19T07:47:22;43.2;34.1;57.5;;
65079;Laerm;52655;52.218;5.964;2022-08-19T07:49:22;42.7;33.4;53.7;;
65079;Laerm;52655;52.218;5.964;2022-08-19T07:53:22;40.2;32.6;50.4;;
65079;Laerm;52655;52.218;5.964;2022-08-19T07:55:23;40.3;32.6;53.5;;
65079;Laerm;52655;52.218;5.964;2022-08-19T07:57:22;41.3;32.3;49.1;;
65079;Laerm;52655;52.218;5.964;2022-08-19T07:59:23;41.1;34.6;49.2;;
65079;Laerm;52655;52.218;5.964;2022-08-19T08:01:23;44.8;34.5;58.7;;
65079;Laerm;52655;52.218;5.964;2022-08-19T08:03:23;41.7;34.9;54.5;;
65079;Laerm;52655;52.218;5.964;2022-08-19T08:05:23;43.6;35.2;54.0;;
65079;Laerm;52655;52.218;5.964;2022-08-19T08:07:23;40.7;33.2;55.0;;
65079;Laerm;52655;52.218;5.964;2022-08-19T08:09:24;42.1;34.9;49.3;;
65079;Laerm;52655;52.218;5.964;2022-08-19T08:11:23;41.4;34.0;55.2;;
65079;Laerm;52655;52.218;5.964;2022-08-19T08:13:23;40.7;32.8;52.1;;
65079;Laerm;52655;52.218;5.964;2022-08-19T08:15:23;40.2;34.2;52.1;;
65079;Laerm;52655;52.218;5.964;2022-08-19T08:17:24;39.9;33.4;51.2;;
65079;Laerm;52655;52.218;5.964;2022-08-19T08:19:24;41.8;33.6;56.2;;
65079;Laerm;52655;52.218;5.964;2022-08-19T08:21:23;42.4;34.1;55.5;;
65079;Laerm;52655;52.218;5.964;2022-08-19T08:23:23;47.6;35.3;58.8;;
65079;Laerm;52655;52.218;5.964;2022-08-19T08:25:23;42.8;35.6;55.7;;
65079;Laerm;52655;52.218;5.964;2022-08-19T08:27:23;43.0;34.3;50.5;;
65079;Laerm;52655;52.218;5.964;2022-08-19T08:31:23;41.2;33.8;51.6;;
65079;Laerm;52655;52.218;5.964;2022-08-19T08:35:24;41.8;33.3;54.7;;
65079;Laerm;52655;52.218;5.964;2022-08-19T08:37:24;41.6;33.1;50.9;;
65079;Laerm;52655;52.218;5.964;2022-08-19T08:41:57;41.0;34.3;50.9;;
65079;Laerm;52655;52.218;5.964;2022-08-19T08:43:28;40.0;34.0;50.7;;
65079;Laerm;52655;52.218;5.964;2022-08-19T08:45:24;42.1;35.3;48.7;;
65079;Laerm;52655;52.218;5.964;2022-08-19T08:47:31;42.7;33.9;54.9;;
65079;Laerm;52655;52.218;5.964;2022-08-19T08:49:36;42.3;34.0;49.4;;
65079;Laerm;52655;52.218;5.964;2022-08-19T08:51:36;46.0;33.9;57.9;;
65079;Laerm;52655;52.218;5.964;2022-08-19T08:53:24;45.5;35.9;62.4;;
65079;Laerm;52655;52.218;5.964;2022-08-19T08:55:29;44.9;33.2;57.5;;
65079;Laerm;52655;52.218;5.964;2022-08-19T08:57:27;38.8;32.2;48.0;;
65079;Laerm;52655;52.218;5.964;2022-08-19T08:59:25;41.7;33.1;49.9;;
65079;Laerm;52655;52.218;5.964;2022-08-19T09:01:32;40.4;33.3;50.6;;
65079;Laerm;52655;52.218;5.964;2022-08-19T09:03:25;42.0;34.0;50.5;;
65079;Laerm;52655;52.218;5.964;2022-08-19T09:05:25;42.6;33.6;52.8;;
65079;Laerm;52655;52.218;5.964;2022-08-19T09:07:25;52.5;32.8;65.3;;
65079;Laerm;52655;52.218;5.964;2022-08-19T09:11:29;43.8;34.4;58.1;;
65079;Laerm;52655;52.218;5.964;2022-08-19T09:13:51;40.0;33.3;48.4;;
65079;Laerm;52655;52.218;5.964;2022-08-19T09:17:27;44.9;33.9;61.7;;
65079;Laerm;52655;52.218;5.964;2022-08-19T09:21:25;40.4;33.8;49.8;;
65079;Laerm;52655;52.218;5.964;2022-08-19T09:23:25;40.9;34.0;52.2;;
65079;Laerm;52655;52.218;5.964;2022-08-19T09:25:25;49.7;35.7;58.5;;
65079;Laerm;52655;52.218;5.964;2022-08-19T09:27:26;42.4;35.2;49.9;;
65079;Laerm;52655;52.218;5.964;2022-08-19T09:29:25;40.7;32.6;57.1;;
65079;Laerm;52655;52.218;5.964;2022-08-19T09:31:28;41.8;33.1;60.3;;
65079;Laerm;52655;52.218;5.964;2022-08-19T09:33:25;40.9;33.6;53.3;;
65079;Laerm;52655;52.218;5.964;2022-08-19T09:35:26;38.8;31.5;51.3;;
65079;Laerm;52655;52.218;5.964;2022-08-19T09:37:25;39.9;32.8;48.6;;
65079;Laerm;52655;52.218;5.964;2022-08-19T09:39:25;46.5;35.3;57.1;;
65079;Laerm;52655;52.218;5.964;2022-08-19T09:41:26;41.6;34.8;57.1;;
65079;Laerm;52655;52.218;5.964;2022-08-19T09:43:25;45.2;34.9;57.1;;
65079;Laerm;52655;52.218;5.964;2022-08-19T09:45:25;39.4;33.8;55.3;;
65079;Laerm;52655;52.218;5.964;2022-08-19T09:47:25;41.8;34.0;55.7;;
65079;Laerm;52655;52.218;5.964;2022-08-19T09:49:26;42.1;34.7;58.5;;
65079;Laerm;52655;52.218;5.964;2022-08-19T09:51:26;40.1;33.2;49.4;;
65079;Laerm;52655;52.218;5.964;2022-08-19T09:53:26;42.7;33.4;52.6;;
65079;Laerm;52655;52.218;5.964;2022-08-19T09:55:26;47.1;34.9;63.0;;
65079;Laerm;52655;52.218;5.964;2022-08-19T09:57:26;38.7;31.4;48.3;;
65079;Laerm;52655;52.218;5.964;2022-08-19T09:59:26;40.7;33.1;49.9;;
65079;Laerm;52655;52.218;5.964;2022-08-19T10:01:29;46.9;34.2;61.6;;
65079;Laerm;52655;52.218;5.964;2022-08-19T10:05:26;44.4;35.5;55.3;;
65079;Laerm;52655;52.218;5.964;2022-08-19T10:07:26;44.0;35.3;59.2;;
65079;Laerm;52655;52.218;5.964;2022-08-19T10:09:26;41.4;34.0;53.0;;
65079;Laerm;52655;52.218;5.964;2022-08-19T10:11:26;44.3;34.9;57.9;;
65079;Laerm;52655;52.218;5.964;2022-08-19T10:13:29;43.0;33.8;56.0;;
65079;Laerm;52655;52.218;5.964;2022-08-19T10:15:26;40.7;33.6;49.7;;
65079;Laerm;52655;52.218;5.964;2022-08-19T10:17:26;41.8;34.2;55.6;;
65079;Laerm;52655;52.218;5.964;2022-08-19T10:19:26;41.9;33.4;55.3;;
65079;Laerm;52655;52.218;5.964;2022-08-19T10:21:27;42.2;34.9;57.9;;
65079;Laerm;52655;52.218;5.964;2022-08-19T10:23:27;40.3;33.6;55.7;;
65079;Laerm;52655;52.218;5.964;2022-08-19T10:27:27;43.2;34.7;53.6;;
65079;Laerm;52655;52.218;5.964;2022-08-19T10:29:27;40.9;34.2;50.5;;
65079;Laerm;52655;52.218;5.964;2022-08-19T10:31:27;42.3;34.3;53.7;;
65079;Laerm;52655;52.218;5.964;2022-08-19T10:33:27;42.8;33.6;57.1;;
65079;Laerm;52655;52.218;5.964;2022-08-19T10:35:27;42.4;33.2;52.9;;
65079;Laerm;52655;52.218;5.964;2022-08-19T10:37:27;45.9;34.6;59.3;;
65079;Laerm;52655;52.218;5.964;2022-08-19T10:41:28;42.2;33.6;59.3;;
65079;Laerm;52655;52.218;5.964;2022-08-19T10:43:27;42.1;32.2;56.2;;
65079;Laerm;52655;52.218;5.964;2022-08-19T10:45:27;41.2;32.6;52.4;;
65079;Laerm;52655;52.218;5.964;2022-08-19T10:47:27;43.7;34.7;57.7;;
65079;Laerm;52655;52.218;5.964;2022-08-19T10:49:27;47.1;33.3;64.9;;
65079;Laerm;52655;52.218;5.964;2022-08-19T10:51:29;41.9;33.1;53.2;;
65079;Laerm;52655;52.218;5.964;2022-08-19T10:53:27;39.8;32.9;49.7;;
65079;Laerm;52655;52.218;5.964;2022-08-19T10:55:27;40.4;32.1;49.2;;
65079;Laerm;52655;52.218;5.964;2022-08-19T10:59:28;46.9;32.8;59.5;;
65079;Laerm;52655;52.218;5.964;2022-08-19T11:03:28;41.9;35.4;56.7;;
65079;Laerm;52655;52.218;5.964;2022-08-19T11:05:28;39.1;32.3;51.0;;
65079;Laerm;52655;52.218;5.964;2022-08-19T11:07:28;42.3;34.7;51.4;;
65079;Laerm;52655;52.218;5.964;2022-08-19T11:09:28;45.0;34.0;55.1;;
65079;Laerm;52655;52.218;5.964;2022-08-19T11:11:28;42.4;33.6;53.1;;
65079;Laerm;52655;52.218;5.964;2022-08-19T11:13:28;40.4;35.4;51.7;;
65079;Laerm;52655;52.218;5.964;2022-08-19T11:15:35;41.2;33.8;52.8;;
65079;Laerm;52655;52.218;5.964;2022-08-19T11:17:28;40.3;33.8;55.6;;
65079;Laerm;52655;52.218;5.964;2022-08-19T11:19:28;41.9;35.6;54.8;;
65079;Laerm;52655;52.218;5.964;2022-08-19T11:21:30;39.8;32.6;53.2;;
65079;Laerm;52655;52.218;5.964;2022-08-19T11:23:28;41.1;33.6;54.9;;
65079;Laerm;52655;52.218;5.964;2022-08-19T11:25:37;44.3;35.4;56.0;;
65079;Laerm;52655;52.218;5.964;2022-08-19T11:27:28;39.3;32.7;52.4;;
65079;Laerm;52655;52.218;5.964;2022-08-19T11:29:28;38.6;32.9;49.9;;
65079;Laerm;52655;52.218;5.964;2022-08-19T11:31:29;42.5;34.3;51.2;;
65079;Laerm;52655;52.218;5.964;2022-08-19T11:35:29;40.9;34.4;53.9;;
65079;Laerm;52655;52.218;5.964;2022-08-19T11:39:29;41.6;34.4;52.6;;
65079;Laerm;52655;52.218;5.964;2022-08-19T11:41:29;44.8;33.9;57.7;;
65079;Laerm;52655;52.218;5.964;2022-08-19T11:43:29;39.5;32.5;50.1;;
65079;Laerm;52655;52.218;5.964;2022-08-19T11:45:29;42.4;33.3;56.5;;
65079;Laerm;52655;52.218;5.964;2022-08-19T11:49:29;40.9;33.6;56.6;;
65079;Laerm;52655;52.218;5.964;2022-08-19T11:51:29;46.2;35.9;54.1;;
65079;Laerm;52655;52.218;5.964;2022-08-19T11:53:29;40.4;33.4;54.4;;
65079;Laerm;52655;52.218;5.964;2022-08-19T11:55:29;42.3;33.8;58.6;;
65079;Laerm;52655;52.218;5.964;2022-08-19T11:57:29;59.9;34.5;65.7;;
65079;Laerm;52655;52.218;5.964;2022-08-19T11:59:29;57.9;34.4;70.0;;
65079;Laerm;52655;52.218;5.964;2022-08-19T12:01:29;40.9;35.4;49.9;;
65079;Laerm;52655;52.218;5.964;2022-08-19T12:03:29;45.9;34.0;67.1;;
65079;Laerm;52655;52.218;5.964;2022-08-19T12:05:29;52.1;33.8;68.2;;
65079;Laerm;52655;52.218;5.964;2022-08-19T12:07:29;51.0;35.0;71.3;;
65079;Laerm;52655;52.218;5.964;2022-08-19T12:09:29;45.7;32.7;60.3;;
65079;Laerm;52655;52.218;5.964;2022-08-19T12:11:30;49.1;35.9;63.0;;
65079;Laerm;52655;52.218;5.964;2022-08-19T12:13:37;42.0;34.3;51.3;;
65079;Laerm;52655;52.218;5.964;2022-08-19T12:15:30;49.9;36.1;62.1;;
65079;Laerm;52655;52.218;5.964;2022-08-19T12:17:30;40.2;35.4;55.5;;
65079;Laerm;52655;52.218;5.964;2022-08-19T12:19:30;40.1;33.3;56.6;;
65079;Laerm;52655;52.218;5.964;2022-08-19T12:21:30;41.5;33.9;57.5;;
65079;Laerm;52655;52.218;5.964;2022-08-19T12:23:37;39.8;32.0;50.7;;
65079;Laerm;52655;52.218;5.964;2022-08-19T12:25:30;41.5;33.6;53.6;;
65079;Laerm;52655;52.218;5.964;2022-08-19T12:27:30;40.8;33.8;52.5;;
65079;Laerm;52655;52.218;5.964;2022-08-19T12:31:30;43.9;34.1;58.2;;
65079;Laerm;52655;52.218;5.964;2022-08-19T12:33:30;44.8;33.9;57.5;;
65079;Laerm;52655;52.218;5.964;2022-08-19T12:35:30;40.6;32.9;47.6;;
65079;Laerm;52655;52.218;5.964;2022-08-19T12:37:30;41.3;33.8;51.6;;
65079;Laerm;52655;52.218;5.964;2022-08-19T12:39:33;44.3;33.3;60.8;;
65079;Laerm;52655;52.218;5.964;2022-08-19T12:41:30;38.5;32.3;52.4;;
65079;Laerm;52655;52.218;5.964;2022-08-19T12:43:30;44.7;32.4;62.9;;
65079;Laerm;52655;52.218;5.964;2022-08-19T12:45:30;44.7;31.3;63.4;;
65079;Laerm;52655;52.218;5.964;2022-08-19T12:47:30;40.0;33.2;51.6;;